createdAt,value
2017-07-18T00:00:01.696Z,4
2017-07-18T00:01:03.708Z,4
2017-07-18T00:02:05.625Z,4
2017-07-18T00:03:07.391Z,4
2017-07-18T00:04:09.299Z,4
2017-07-18T00:05:11.220Z,4
2017-07-18T00:06:13.261Z,4
2017-07-18T00:07:15.102Z,4
2017-07-18T00:08:16.922Z,4
2017-07-18T00:09:18.889Z,12
2017-07-18T00:10:20.678Z,4
2017-07-18T00:11:22.475Z,4
2017-07-18T00:12:24.282Z,4
2017-07-18T00:13:26.083Z,4
2017-07-18T00:14:27.875Z,4
2017-07-18T00:15:29.744Z,4
2017-07-18T00:16:31.565Z,4
2017-07-18T00:17:33.313Z,4
2017-07-18T00:18:35.079Z,4
2017-07-18T00:19:37.003Z,4
2017-07-18T00:20:39.191Z,4
2017-07-18T00:21:40.972Z,4
2017-07-18T00:22:42.881Z,4
2017-07-18T00:23:44.816Z,4
2017-07-18T00:24:46.607Z,4
2017-07-18T00:25:48.456Z,4
2017-07-18T00:26:50.317Z,4
2017-07-18T00:27:52.126Z,4
2017-07-18T00:28:53.944Z,4
2017-07-18T00:29:55.894Z,4
2017-07-18T00:30:57.791Z,4
2017-07-18T00:31:59.644Z,4
2017-07-18T00:33:01.586Z,4
2017-07-18T00:34:03.425Z,4
2017-07-18T00:35:05.239Z,4
2017-07-18T00:36:07.068Z,4
2017-07-18T00:37:08.975Z,4
2017-07-18T00:38:10.884Z,4
2017-07-18T00:39:12.688Z,4
2017-07-18T00:40:14.441Z,4
2017-07-18T00:41:16.328Z,4
2017-07-18T00:42:18.168Z,4
2017-07-18T00:43:19.975Z,4
2017-07-18T00:44:21.762Z,4
2017-07-18T00:45:23.702Z,4
2017-07-18T00:46:25.446Z,4
2017-07-18T00:47:27.348Z,4
2017-07-18T00:48:29.170Z,4
2017-07-18T00:49:30.922Z,4
2017-07-18T00:50:32.764Z,4
2017-07-18T00:51:34.655Z,4
2017-07-18T00:52:36.567Z,4
2017-07-18T00:53:38.511Z,4
2017-07-18T00:54:40.408Z,4
2017-07-18T00:55:42.275Z,4
2017-07-18T00:56:44.089Z,4
2017-07-18T00:57:45.997Z,4
2017-07-18T00:58:48.020Z,4
2017-07-18T00:59:50.066Z,4
2017-07-18T01:00:51.957Z,4
2017-07-18T01:01:53.888Z,4
2017-07-18T01:02:55.938Z,4
2017-07-18T01:03:57.733Z,4
2017-07-18T01:04:59.622Z,4
2017-07-18T01:06:01.498Z,4
2017-07-18T01:07:03.506Z,4
2017-07-18T01:08:05.247Z,4
2017-07-18T01:09:07.053Z,4
2017-07-18T01:10:08.918Z,4
2017-07-18T01:11:10.776Z,4
2017-07-18T01:12:12.615Z,4
2017-07-18T01:13:14.459Z,4
2017-07-18T01:14:16.342Z,4
2017-07-18T01:15:18.142Z,4
2017-07-18T01:16:19.918Z,4
2017-07-18T01:17:21.801Z,12
2017-07-18T01:18:23.695Z,4
2017-07-18T01:19:25.454Z,4
2017-07-18T01:20:27.260Z,4
2017-07-18T01:21:29.014Z,4
2017-07-18T01:22:30.901Z,4
2017-07-18T01:23:32.759Z,4
2017-07-18T01:24:34.535Z,4
2017-07-18T01:25:36.345Z,4
2017-07-18T01:26:38.150Z,4
2017-07-18T01:27:39.947Z,4
2017-07-18T01:28:41.764Z,4
2017-07-18T01:29:43.571Z,4
2017-07-18T01:30:45.372Z,4
2017-07-18T01:31:47.125Z,4
2017-07-18T01:32:48.998Z,12
2017-07-18T01:33:50.774Z,4
2017-07-18T01:34:52.576Z,4
2017-07-18T01:35:54.365Z,4
2017-07-18T01:36:56.200Z,4
2017-07-18T01:37:57.977Z,4
2017-07-18T01:38:59.716Z,4
2017-07-18T01:40:01.483Z,4
2017-07-18T01:41:03.272Z,4
2017-07-18T01:42:05.154Z,4
2017-07-18T01:43:06.919Z,4
2017-07-18T01:44:08.660Z,4
2017-07-18T01:45:10.405Z,4
2017-07-18T01:46:12.687Z,4
2017-07-18T01:47:14.431Z,4
2017-07-18T01:48:16.279Z,4
2017-07-18T01:49:18.146Z,4
2017-07-18T01:50:19.875Z,4
2017-07-18T01:51:21.636Z,4
2017-07-18T01:52:23.366Z,4
2017-07-18T01:53:25.181Z,4
2017-07-18T01:54:26.903Z,4
2017-07-18T01:55:28.736Z,4
2017-07-18T01:56:30.466Z,4
2017-07-18T01:57:32.263Z,4
2017-07-18T01:58:34.096Z,4
2017-07-18T01:59:35.919Z,4
2017-07-18T02:00:37.849Z,4
2017-07-18T02:01:39.610Z,4
2017-07-18T02:02:41.369Z,4
2017-07-18T02:03:43.161Z,4
2017-07-18T02:04:44.974Z,4
2017-07-18T02:05:46.798Z,4
2017-07-18T02:06:48.553Z,4
2017-07-18T02:07:50.351Z,4
2017-07-18T02:08:52.207Z,4
2017-07-18T02:09:54.074Z,4
2017-07-18T02:10:55.924Z,4
2017-07-18T02:11:57.690Z,4
2017-07-18T02:12:59.587Z,4
2017-07-18T02:14:01.407Z,4
2017-07-18T02:15:03.315Z,4
2017-07-18T02:16:05.149Z,4
2017-07-18T02:17:06.992Z,4
2017-07-18T02:18:08.742Z,4
2017-07-18T02:19:10.592Z,4
2017-07-18T02:20:12.354Z,4
2017-07-18T02:21:14.146Z,4
2017-07-18T02:22:15.994Z,4
2017-07-18T02:23:17.751Z,4
2017-07-18T02:24:19.578Z,4
2017-07-18T02:25:21.384Z,4
2017-07-18T02:26:23.272Z,4
2017-07-18T02:27:25.116Z,4
2017-07-18T02:28:26.848Z,4
2017-07-18T02:29:28.634Z,4
2017-07-18T02:30:30.483Z,4
2017-07-18T02:31:32.392Z,4
2017-07-18T02:32:34.201Z,4
2017-07-18T02:33:36.040Z,4
2017-07-18T02:34:37.850Z,4
2017-07-18T02:35:39.718Z,4
2017-07-18T02:36:41.466Z,4
2017-07-18T02:37:43.265Z,4
2017-07-18T02:38:45.090Z,8
2017-07-18T02:39:46.833Z,4
2017-07-18T02:40:48.716Z,4
2017-07-18T02:41:50.491Z,4
2017-07-18T02:42:52.324Z,4
2017-07-18T02:43:54.180Z,4
2017-07-18T02:44:56.103Z,8
2017-07-18T02:45:57.859Z,8
2017-07-18T02:46:59.626Z,4
2017-07-18T02:48:01.517Z,4
2017-07-18T02:49:03.329Z,8
2017-07-18T02:50:05.125Z,8
2017-07-18T02:51:06.905Z,8
2017-07-18T02:52:08.657Z,8
2017-07-18T02:53:10.518Z,8
2017-07-18T02:54:12.376Z,12
2017-07-18T02:55:14.623Z,12
2017-07-18T02:56:16.463Z,12
2017-07-18T02:57:18.258Z,12
2017-07-18T02:58:20.044Z,12
2017-07-18T02:59:22.485Z,16
2017-07-18T03:00:24.263Z,20
2017-07-18T03:01:26.074Z,28
2017-07-18T03:02:27.872Z,24
2017-07-18T03:03:29.646Z,28
2017-07-18T03:04:31.428Z,28
2017-07-18T03:05:33.278Z,32
2017-07-18T03:06:35.074Z,40
2017-07-18T03:07:36.934Z,44
2017-07-18T03:08:38.756Z,52
2017-07-18T03:09:40.525Z,52
2017-07-18T03:10:42.286Z,56
2017-07-18T03:11:44.066Z,64
2017-07-18T03:12:45.844Z,72
2017-07-18T03:13:47.626Z,80
2017-07-18T03:14:49.408Z,88
2017-07-18T03:15:51.182Z,96
2017-07-18T03:16:54.524Z,108
2017-07-18T03:17:58.500Z,120
2017-07-18T03:19:00.271Z,132
2017-07-18T03:20:02.047Z,140
2017-07-18T03:21:03.841Z,152
2017-07-18T03:22:05.656Z,164
2017-07-18T03:23:07.475Z,184
2017-07-18T03:24:09.247Z,200
2017-07-18T03:25:11.048Z,212
2017-07-18T03:26:13.009Z,228
2017-07-18T03:27:14.783Z,244
2017-07-18T03:28:16.602Z,264
2017-07-18T03:29:18.444Z,288
2017-07-18T03:30:20.224Z,304
2017-07-18T03:31:22.209Z,324
2017-07-18T03:32:24.020Z,352
2017-07-18T03:33:25.849Z,376
2017-07-18T03:34:27.675Z,404
2017-07-18T03:35:29.733Z,424
2017-07-18T03:36:31.777Z,456
2017-07-18T03:37:33.636Z,488
2017-07-18T03:38:35.446Z,516
2017-07-18T03:40:47.105Z,572
2017-07-18T03:41:48.691Z,608
2017-07-18T03:42:50.310Z,640
2017-07-18T03:43:51.931Z,672
2017-07-18T03:44:53.540Z,708
2017-07-18T03:45:55.140Z,744
2017-07-18T03:46:56.991Z,776
2017-07-18T03:47:58.814Z,816
2017-07-18T03:49:00.631Z,852
2017-07-18T03:50:02.469Z,884
2017-07-18T03:51:04.080Z,908
2017-07-18T03:52:05.694Z,948
2017-07-18T03:53:07.291Z,996
2017-07-18T03:54:10.919Z,1040
2017-07-18T03:55:12.545Z,1072
2017-07-18T03:56:14.383Z,1108
2017-07-18T03:57:15.992Z,1144
2017-07-18T03:58:17.588Z,1184
2017-07-18T03:59:19.433Z,1220
2017-07-18T04:00:21.058Z,1244
2017-07-18T04:01:22.995Z,1292
2017-07-18T04:02:24.821Z,1332
2017-07-18T04:03:26.494Z,1380
2017-07-18T04:04:28.360Z,1424
2017-07-18T04:05:30.219Z,1476
2017-07-18T04:06:31.821Z,1520
2017-07-18T04:07:33.446Z,1564
2017-07-18T04:08:35.057Z,1600
2017-07-18T04:09:36.669Z,1640
2017-07-18T04:10:38.283Z,1676
2017-07-18T04:11:39.892Z,1712
2017-07-18T04:12:41.516Z,1740
2017-07-18T04:13:43.132Z,1776
2017-07-18T04:14:44.747Z,1804
2017-07-18T04:15:46.389Z,1836
2017-07-18T04:16:49.526Z,1868
2017-07-18T04:17:51.126Z,1900
2017-07-18T04:18:52.746Z,1928
2017-07-18T04:19:54.597Z,1964
2017-07-18T04:20:56.210Z,1992
2017-07-18T04:21:57.993Z,2028
2017-07-18T04:22:59.599Z,2048
2017-07-18T04:24:01.262Z,2072
2017-07-18T04:25:02.873Z,2104
2017-07-18T04:26:04.500Z,2128
2017-07-18T04:27:06.123Z,2148
2017-07-18T04:28:07.753Z,2172
2017-07-18T04:29:09.347Z,2204
2017-07-18T04:30:10.959Z,2244
2017-07-18T04:31:12.602Z,2276
2017-07-18T04:32:14.216Z,2292
2017-07-18T04:33:15.831Z,2288
2017-07-18T04:34:17.442Z,2308
2017-07-18T04:35:19.055Z,2356
2017-07-18T04:36:20.673Z,2412
2017-07-18T04:37:22.293Z,2456
2017-07-18T04:38:26.166Z,2480
2017-07-18T04:39:28.048Z,2496
2017-07-18T04:40:29.650Z,2520
2017-07-18T04:41:31.276Z,2564
2017-07-18T04:42:33.749Z,2636
2017-07-18T04:43:35.756Z,2664
2017-07-18T04:44:38.319Z,2672
2017-07-18T04:45:40.886Z,2732
2017-07-18T04:46:43.415Z,2756
2017-07-18T04:47:45.760Z,2800
2017-07-18T04:48:47.353Z,2824
2017-07-18T04:49:48.991Z,2860
2017-07-18T04:50:50.611Z,2928
2017-07-18T04:51:52.450Z,3040
2017-07-18T04:52:54.075Z,3140
2017-07-18T04:53:55.678Z,3208
2017-07-18T04:54:57.296Z,3248
2017-07-18T04:55:58.908Z,3272
2017-07-18T04:57:00.544Z,3300
2017-07-18T04:58:04.062Z,3292
2017-07-18T04:59:07.666Z,3296
2017-07-18T05:00:09.276Z,3308
2017-07-18T05:01:10.881Z,3300
2017-07-18T05:02:12.716Z,3304
2017-07-18T05:03:14.331Z,3308
2017-07-18T05:04:15.965Z,3292
2017-07-18T05:05:17.579Z,3260
2017-07-18T05:06:19.192Z,3264
2017-07-18T05:07:20.809Z,3312
2017-07-18T05:08:22.421Z,3348
2017-07-18T05:09:24.042Z,3384
2017-07-18T05:10:25.739Z,3436
2017-07-18T05:11:27.390Z,3500
2017-07-18T05:12:29.000Z,3584
2017-07-18T05:13:30.619Z,3660
2017-07-18T05:14:32.242Z,3756
2017-07-18T05:15:33.877Z,3856
2017-07-18T05:16:35.474Z,3960
2017-07-18T05:17:37.101Z,4088
2017-07-18T05:18:38.710Z,4204
2017-07-18T05:19:40.322Z,4284
2017-07-18T05:20:41.958Z,4304
2017-07-18T05:21:43.802Z,4272
2017-07-18T05:22:45.408Z,4228
2017-07-18T05:23:47.016Z,4212
2017-07-18T05:24:48.649Z,4188
2017-07-18T05:25:50.268Z,4148
2017-07-18T05:26:51.893Z,4112
2017-07-18T05:27:53.510Z,4136
2017-07-18T05:28:55.121Z,4208
2017-07-18T05:29:56.735Z,4284
2017-07-18T05:30:58.350Z,4336
2017-07-18T05:32:01.962Z,4352
2017-07-18T05:33:03.550Z,4356
2017-07-18T05:34:05.184Z,4380
2017-07-18T05:35:06.823Z,4384
2017-07-18T05:36:08.420Z,4360
2017-07-18T05:37:10.031Z,4312
2017-07-18T05:38:11.671Z,4316
2017-07-18T05:39:13.289Z,4284
2017-07-18T05:40:14.887Z,4272
2017-07-18T05:41:16.493Z,4300
2017-07-18T05:42:18.120Z,4376
2017-07-18T05:43:19.750Z,4420
2017-07-18T05:44:21.355Z,4428
2017-07-18T05:45:24.147Z,4416
2017-07-18T05:46:26.923Z,4420
2017-07-18T05:47:28.539Z,4388
2017-07-18T05:48:30.165Z,4364
2017-07-18T05:49:31.794Z,4368
2017-07-18T05:50:33.419Z,4364
2017-07-18T05:51:35.021Z,4348
2017-07-18T05:52:36.661Z,4368
2017-07-18T05:53:38.271Z,4380
2017-07-18T05:54:39.880Z,4404
2017-07-18T05:55:41.498Z,4420
2017-07-18T05:56:43.120Z,4412
2017-07-18T05:57:44.729Z,4428
2017-07-18T05:58:46.351Z,4456
2017-07-18T05:59:47.976Z,4504
2017-07-18T06:00:50.002Z,4544
2017-07-18T06:01:51.638Z,4604
2017-07-18T06:02:53.249Z,4644
2017-07-18T06:03:54.858Z,4684
2017-07-18T06:04:56.512Z,4736
2017-07-18T06:05:58.113Z,4796
2017-07-18T06:06:59.746Z,4908
2017-07-18T06:08:01.341Z,5004
2017-07-18T06:09:02.949Z,5136
2017-07-18T06:10:06.176Z,5288
2017-07-18T06:11:07.802Z,5424
2017-07-18T06:12:09.418Z,5500
2017-07-18T06:13:11.050Z,5576
2017-07-18T06:14:12.650Z,5740
2017-07-18T06:15:14.271Z,5844
2017-07-18T06:16:15.886Z,5928
2017-07-18T06:17:17.517Z,6020
2017-07-18T06:18:19.127Z,6080
2017-07-18T06:19:20.766Z,6168
2017-07-18T06:20:22.358Z,6100
2017-07-18T06:21:23.991Z,6048
2017-07-18T06:22:25.621Z,6092
2017-07-18T06:23:27.244Z,6184
2017-07-18T06:24:28.866Z,6316
2017-07-18T06:25:30.470Z,6420
2017-07-18T06:26:32.105Z,6548
2017-07-18T06:27:33.718Z,6652
2017-07-18T06:28:35.330Z,6692
2017-07-18T06:29:36.943Z,6884
2017-07-18T06:30:38.571Z,7084
2017-07-18T06:31:40.200Z,7344
2017-07-18T06:32:41.809Z,7512
2017-07-18T06:33:43.431Z,7772
2017-07-18T06:34:45.060Z,7812
2017-07-18T06:35:46.663Z,7748
2017-07-18T06:36:48.307Z,7596
2017-07-18T06:37:49.918Z,7424
2017-07-18T06:38:51.544Z,7288
2017-07-18T06:39:53.178Z,6824
2017-07-18T06:40:55.021Z,6772
2017-07-18T06:41:56.572Z,7064
2017-07-18T06:42:58.201Z,7060
2017-07-18T06:43:59.806Z,7464
2017-07-18T06:45:01.428Z,7568
2017-07-18T06:46:03.036Z,7580
2017-07-18T06:47:04.655Z,7476
2017-07-18T06:48:06.299Z,7028
2017-07-18T06:49:07.905Z,7248
2017-07-18T06:50:09.511Z,7264
2017-07-18T06:51:11.133Z,7336
2017-07-18T06:52:12.754Z,7460
2017-07-18T06:53:14.377Z,7468
2017-07-18T06:54:16.006Z,7580
2017-07-18T06:55:17.640Z,7620
2017-07-18T06:56:19.246Z,7704
2017-07-18T06:57:20.865Z,7752
2017-07-18T06:58:22.506Z,7828
2017-07-18T06:59:24.103Z,7936
2017-07-18T07:00:25.723Z,8056
2017-07-18T07:01:27.384Z,8212
2017-07-18T07:02:29.016Z,8372
2017-07-18T07:03:30.613Z,8564
2017-07-18T07:04:32.241Z,8852
2017-07-18T07:05:33.860Z,9320
2017-07-18T07:06:35.485Z,10096
2017-07-18T07:07:37.472Z,11076
2017-07-18T07:08:38.689Z,11608
2017-07-18T07:09:40.290Z,11992
2017-07-18T07:10:41.932Z,12108
2017-07-18T07:11:43.533Z,12248
2017-07-18T07:12:45.155Z,12304
2017-07-18T07:13:46.775Z,12096
2017-07-18T07:14:48.416Z,11452
2017-07-18T07:15:56.954Z,10860
2017-07-18T07:16:58.568Z,10672
2017-07-18T07:18:00.182Z,10624
2017-07-18T07:19:01.799Z,10616
2017-07-18T07:20:03.446Z,10644
2017-07-18T07:21:05.078Z,10644
2017-07-18T07:22:06.698Z,10664
2017-07-18T07:23:08.306Z,10824
2017-07-18T07:24:09.953Z,11368
2017-07-18T07:25:11.557Z,12124
2017-07-18T07:26:13.464Z,12272
2017-07-18T07:27:15.089Z,13076
2017-07-18T07:28:16.709Z,12932
2017-07-18T07:29:18.599Z,12692
2017-07-18T07:30:20.547Z,12120
2017-07-18T07:31:22.977Z,11584
2017-07-18T07:32:24.583Z,11028
2017-07-18T07:33:26.183Z,10572
2017-07-18T07:34:27.800Z,10416
2017-07-18T07:35:29.438Z,10528
2017-07-18T07:36:31.059Z,10936
2017-07-18T07:37:33.054Z,11412
2017-07-18T07:38:34.708Z,11884
2017-07-18T07:39:36.308Z,12220
2017-07-18T07:40:37.938Z,14240
2017-07-18T07:41:39.555Z,14112
2017-07-18T07:42:42.127Z,17264
2017-07-18T07:43:44.374Z,26368
2017-07-18T07:44:46.355Z,21056
2017-07-18T07:45:49.435Z,16928
2017-07-18T07:46:51.066Z,22752
2017-07-18T07:47:52.685Z,40384
2017-07-18T07:48:54.305Z,44576
2017-07-18T07:49:55.935Z,49280
2017-07-18T07:50:57.565Z,17888
2017-07-18T07:51:59.189Z,17020
2017-07-18T07:53:00.814Z,24704
2017-07-18T07:54:02.440Z,74336
2017-07-18T07:55:04.078Z,76160
2017-07-18T07:56:05.694Z,80096
2017-07-18T07:57:07.505Z,81344
2017-07-18T07:58:11.122Z,80480
2017-07-18T07:59:12.737Z,80032
2017-07-18T08:00:14.354Z,81280
2017-07-18T08:01:16.002Z,81344
2017-07-18T08:02:17.615Z,81600
2017-07-18T08:03:19.260Z,81888
2017-07-18T08:04:20.881Z,81600
2017-07-18T08:05:22.557Z,81408
2017-07-18T08:06:24.161Z,79872
2017-07-18T08:07:25.813Z,78976
2017-07-18T08:08:29.007Z,73536
2017-07-18T08:09:30.620Z,74944
2017-07-18T08:10:34.131Z,77184
2017-07-18T08:11:35.757Z,79680
2017-07-18T08:12:37.393Z,82272
2017-07-18T08:13:39.029Z,78656
2017-07-18T08:14:40.680Z,80352
2017-07-18T08:15:42.292Z,82240
2017-07-18T08:16:43.934Z,82080
2017-07-18T08:17:45.569Z,82848
2017-07-18T08:18:47.214Z,85664
2017-07-18T08:19:50.624Z,84064
2017-07-18T08:20:52.246Z,79744
2017-07-18T08:21:53.912Z,78656
2017-07-18T08:22:55.530Z,84192
2017-07-18T08:23:57.161Z,83232
2017-07-18T08:24:58.804Z,82336
2017-07-18T08:26:00.435Z,83008
2017-07-18T08:27:02.095Z,80992
2017-07-18T08:28:05.505Z,86336
2017-07-18T08:29:07.138Z,88320
2017-07-18T08:30:08.775Z,88608
2017-07-18T08:31:10.415Z,64576
2017-07-18T08:32:12.063Z,71872
2017-07-18T08:33:13.710Z,80832
2017-07-18T08:34:15.343Z,80064
2017-07-18T08:35:16.985Z,81952
2017-07-18T08:36:18.607Z,82496
2017-07-18T08:37:20.268Z,76480
2017-07-18T08:38:21.884Z,69408
2017-07-18T08:39:23.535Z,79936
2017-07-18T08:40:25.238Z,94720
2017-07-18T08:41:27.143Z,96640
2017-07-18T08:42:28.747Z,84992
2017-07-18T08:43:30.399Z,82304
2017-07-18T08:44:32.024Z,85056
2017-07-18T08:45:33.671Z,77600
2017-07-18T08:46:35.289Z,82592
2017-07-18T08:47:36.939Z,81088
2017-07-18T08:48:38.576Z,82176
2017-07-18T08:49:40.218Z,81952
2017-07-18T08:50:41.856Z,82784
2017-07-18T08:51:43.706Z,82912
2017-07-18T08:52:45.349Z,84288
2017-07-18T08:53:46.986Z,84896
2017-07-18T08:54:48.628Z,82112
2017-07-18T08:55:50.249Z,38080
2017-07-18T08:56:51.912Z,75840
2017-07-18T08:57:53.877Z,94272
2017-07-18T08:58:55.516Z,94080
2017-07-18T08:59:57.156Z,88928
2017-07-18T09:00:59.703Z,90880
2017-07-18T09:02:03.331Z,90656
2017-07-18T09:03:04.973Z,92992
2017-07-18T09:04:06.608Z,87584
2017-07-18T09:05:08.239Z,91744
2017-07-18T09:06:09.878Z,91872
2017-07-18T09:07:11.532Z,33440
2017-07-18T09:08:14.279Z,30528
2017-07-18T09:09:15.887Z,36288
2017-07-18T09:10:17.527Z,49696
2017-07-18T09:11:19.201Z,69984
2017-07-18T09:12:20.836Z,32960
2017-07-18T09:13:22.481Z,54624
2017-07-18T09:14:24.117Z,84576
2017-07-18T09:15:25.752Z,79968
2017-07-18T09:16:27.398Z,79872
2017-07-18T09:17:29.046Z,87744
2017-07-18T09:18:30.673Z,83936
2017-07-18T09:19:32.323Z,81664
2017-07-18T09:20:33.963Z,87488
2017-07-18T09:21:35.872Z,85248
2017-07-18T09:22:37.501Z,82272
2017-07-18T09:23:39.152Z,68832
2017-07-18T09:24:40.773Z,60512
2017-07-18T09:25:42.435Z,79072
2017-07-18T09:26:44.064Z,79904
2017-07-18T09:27:45.702Z,78464
2017-07-18T09:28:47.964Z,78528
2017-07-18T09:29:49.628Z,69248
2017-07-18T09:30:51.242Z,37664
2017-07-18T09:31:52.888Z,80608
2017-07-18T09:32:54.515Z,80480
2017-07-18T09:33:56.159Z,86176
2017-07-18T09:34:57.799Z,86976
2017-07-18T09:35:59.462Z,88288
2017-07-18T09:37:01.086Z,84288
2017-07-18T09:38:02.718Z,84032
2017-07-18T09:39:04.363Z,76800
2017-07-18T09:40:06.020Z,56448
2017-07-18T09:41:07.636Z,70208
2017-07-18T09:42:09.302Z,81152
2017-07-18T09:43:10.929Z,23712
2017-07-18T09:44:12.578Z,27680
2017-07-18T09:45:14.214Z,31488
2017-07-18T09:46:15.840Z,30976
2017-07-18T09:47:17.487Z,28832
2017-07-18T09:48:19.128Z,54720
2017-07-18T09:49:20.762Z,48960
2017-07-18T09:50:22.400Z,58816
2017-07-18T09:51:24.037Z,27904
2017-07-18T09:52:25.673Z,20064
2017-07-18T09:53:27.312Z,18208
2017-07-18T09:54:28.959Z,20224
2017-07-18T09:55:30.571Z,25376
2017-07-18T09:56:32.209Z,47008
2017-07-18T09:57:33.865Z,72384
2017-07-18T09:58:35.504Z,26592
2017-07-18T09:59:37.126Z,36576
2017-07-18T10:00:38.749Z,37216
2017-07-18T10:01:40.402Z,53280
2017-07-18T10:02:43.738Z,43616
2017-07-18T10:03:45.352Z,61952
2017-07-18T10:04:47.006Z,64608
2017-07-18T10:05:48.630Z,57632
2017-07-18T10:06:50.270Z,18304
2017-07-18T10:07:51.897Z,14368
2017-07-18T10:08:53.528Z,14480
2017-07-18T10:09:55.177Z,13744
2017-07-18T10:10:56.813Z,12748
2017-07-18T10:11:58.646Z,12692
2017-07-18T10:13:00.281Z,13584
2017-07-18T10:14:01.923Z,26240
2017-07-18T10:15:03.546Z,58240
2017-07-18T10:16:05.202Z,57632
2017-07-18T10:17:06.828Z,58976
2017-07-18T10:18:08.460Z,60832
2017-07-18T10:19:10.090Z,57088
2017-07-18T10:20:11.730Z,52928
2017-07-18T10:21:13.370Z,23264
2017-07-18T10:22:14.993Z,14572
2017-07-18T10:23:18.600Z,14152
2017-07-18T10:24:20.225Z,13648
2017-07-18T10:25:21.865Z,13776
2017-07-18T10:26:23.511Z,14400
2017-07-18T10:27:25.117Z,19328
2017-07-18T10:28:26.753Z,49472
2017-07-18T10:29:28.393Z,52832
2017-07-18T10:30:30.053Z,55840
2017-07-18T10:31:31.671Z,57440
2017-07-18T10:32:33.298Z,53152
2017-07-18T10:33:34.935Z,16580
2017-07-18T10:34:36.557Z,15624
2017-07-18T10:35:38.202Z,15884
2017-07-18T10:36:39.816Z,15996
2017-07-18T10:37:41.448Z,17280
2017-07-18T10:38:43.111Z,41280
2017-07-18T10:39:44.727Z,37056
2017-07-18T10:40:46.358Z,52960
2017-07-18T10:41:47.987Z,52448
2017-07-18T10:42:49.630Z,48672
2017-07-18T10:43:51.263Z,30848
2017-07-18T10:44:52.892Z,27520
2017-07-18T10:45:54.532Z,25536
2017-07-18T10:46:56.163Z,23232
2017-07-18T10:47:57.805Z,18112
2017-07-18T10:48:59.423Z,14696
2017-07-18T10:50:02.574Z,13096
2017-07-18T10:51:04.997Z,13180
2017-07-18T10:52:06.612Z,14256
2017-07-18T10:53:08.258Z,14276
2017-07-18T10:54:09.881Z,17984
2017-07-18T10:55:11.509Z,24192
2017-07-18T10:56:13.140Z,23648
2017-07-18T10:57:14.770Z,24192
2017-07-18T10:58:16.410Z,24544
2017-07-18T10:59:18.070Z,24352
2017-07-18T11:00:19.669Z,19008
2017-07-18T11:01:22.352Z,15700
2017-07-18T11:02:23.801Z,13612
2017-07-18T11:03:25.428Z,12892
2017-07-18T11:04:27.284Z,13224
2017-07-18T11:05:28.899Z,13676
2017-07-18T11:06:30.558Z,21728
2017-07-18T11:07:32.178Z,22848
2017-07-18T11:08:33.818Z,24320
2017-07-18T11:09:35.834Z,26080
2017-07-18T11:10:37.839Z,28672
2017-07-18T11:11:39.469Z,31424
2017-07-18T11:12:41.117Z,26336
2017-07-18T11:13:42.723Z,14820
2017-07-18T11:14:44.382Z,14716
2017-07-18T11:15:46.007Z,35616
2017-07-18T11:16:47.617Z,38176
2017-07-18T11:17:49.259Z,33984
2017-07-18T11:18:52.784Z,27904
2017-07-18T11:19:54.419Z,19488
2017-07-18T11:20:56.067Z,18016
2017-07-18T11:21:57.701Z,13416
2017-07-18T11:22:59.335Z,14380
2017-07-18T11:24:00.935Z,14864
2017-07-18T11:25:02.584Z,21952
2017-07-18T11:26:04.229Z,28768
2017-07-18T11:27:05.835Z,27776
2017-07-18T11:28:07.464Z,29152
2017-07-18T11:29:09.109Z,27104
2017-07-18T11:30:10.736Z,25728
2017-07-18T11:31:12.365Z,20096
2017-07-18T11:32:14.001Z,21728
2017-07-18T11:33:15.625Z,24352
2017-07-18T11:34:17.269Z,22976
2017-07-18T11:35:18.887Z,21824
2017-07-18T11:36:20.529Z,13552
2017-07-18T11:37:24.164Z,23584
2017-07-18T11:38:25.805Z,16768
2017-07-18T11:39:27.427Z,10004
2017-07-18T11:40:29.057Z,9900
2017-07-18T11:41:30.696Z,11756
2017-07-18T11:42:32.524Z,20928
2017-07-18T11:43:34.442Z,20800
2017-07-18T11:44:36.049Z,21728
2017-07-18T11:45:37.686Z,23136
2017-07-18T11:46:39.334Z,22720
2017-07-18T11:47:40.946Z,20800
2017-07-18T11:48:42.595Z,19648
2017-07-18T11:49:44.216Z,19008
2017-07-18T11:50:45.863Z,18816
2017-07-18T11:51:47.465Z,17920
2017-07-18T11:52:49.112Z,19616
2017-07-18T11:53:50.726Z,20288
2017-07-18T11:54:52.348Z,19360
2017-07-18T11:55:53.988Z,19776
2017-07-18T11:56:55.624Z,18720
2017-07-18T11:57:57.246Z,12368
2017-07-18T11:58:58.891Z,19136
2017-07-18T12:00:00.507Z,18432
2017-07-18T12:01:02.148Z,12488
2017-07-18T12:02:04.784Z,9816
2017-07-18T12:03:06.702Z,10288
2017-07-18T12:04:08.523Z,16160
2017-07-18T12:05:10.152Z,14772
2017-07-18T12:06:11.799Z,16224
2017-07-18T12:07:13.424Z,17824
2017-07-18T12:08:15.049Z,14284
2017-07-18T12:09:18.653Z,11376
2017-07-18T12:10:20.282Z,18752
2017-07-18T12:11:22.254Z,16608
2017-07-18T12:12:23.883Z,19968
2017-07-18T12:13:25.505Z,18368
2017-07-18T12:14:27.137Z,9820
2017-07-18T12:15:28.774Z,9528
2017-07-18T12:16:30.399Z,9868
2017-07-18T12:17:32.025Z,17664
2017-07-18T12:18:33.661Z,18752
2017-07-18T12:19:35.275Z,19072
2017-07-18T12:20:36.916Z,18432
2017-07-18T12:21:38.565Z,17696
2017-07-18T12:22:40.171Z,17568
2017-07-18T12:23:41.828Z,17696
2017-07-18T12:24:43.963Z,18016
2017-07-18T12:25:45.592Z,17792
2017-07-18T12:26:47.233Z,17024
2017-07-18T12:27:48.874Z,16512
2017-07-18T12:28:50.486Z,15968
2017-07-18T12:29:52.121Z,16064
2017-07-18T12:30:53.754Z,15904
2017-07-18T12:31:55.607Z,16192
2017-07-18T12:32:57.233Z,14132
2017-07-18T12:33:58.861Z,14320
2017-07-18T12:35:00.499Z,16064
2017-07-18T12:36:02.127Z,15616
2017-07-18T12:37:03.772Z,14396
2017-07-18T12:38:05.397Z,13468
2017-07-18T12:39:07.014Z,12652
2017-07-18T12:40:09.305Z,12088
2017-07-18T12:41:10.929Z,11968
2017-07-18T12:42:12.564Z,12148
2017-07-18T12:43:14.195Z,12388
2017-07-18T12:44:15.824Z,12532
2017-07-18T12:45:17.957Z,12984
2017-07-18T12:46:19.609Z,13352
2017-07-18T12:47:21.233Z,13364
2017-07-18T12:48:22.852Z,13248
2017-07-18T12:49:24.477Z,13328
2017-07-18T12:50:26.107Z,11180
2017-07-18T12:51:27.766Z,8372
2017-07-18T12:52:29.400Z,7688
2017-07-18T12:53:31.047Z,10860
2017-07-18T12:54:32.683Z,8348
2017-07-18T12:55:34.301Z,12228
2017-07-18T12:56:36.122Z,13440
2017-07-18T12:57:37.762Z,13360
2017-07-18T12:58:39.419Z,13000
2017-07-18T12:59:41.016Z,9668
2017-07-18T13:00:42.671Z,7148
2017-07-18T13:01:44.281Z,6876
2017-07-18T13:02:45.910Z,6852
2017-07-18T13:03:47.529Z,6828
2017-07-18T13:04:49.163Z,6992
2017-07-18T13:05:50.796Z,9048
2017-07-18T13:06:52.442Z,12800
2017-07-18T13:07:54.045Z,12340
2017-07-18T13:08:55.679Z,12116
2017-07-18T13:09:57.329Z,12116
2017-07-18T13:10:58.942Z,12196
2017-07-18T13:12:02.480Z,12584
2017-07-18T13:13:04.094Z,12952
2017-07-18T13:14:05.716Z,13288
2017-07-18T13:15:07.557Z,13264
2017-07-18T13:16:09.190Z,13428
2017-07-18T13:17:10.806Z,13472
2017-07-18T13:18:12.454Z,13388
2017-07-18T13:19:14.059Z,8092
2017-07-18T13:20:15.694Z,7964
2017-07-18T13:21:17.315Z,10416
2017-07-18T13:22:18.965Z,7964
2017-07-18T13:23:20.586Z,11692
2017-07-18T13:24:22.200Z,13068
2017-07-18T13:25:23.853Z,13416
2017-07-18T13:26:25.482Z,11296
2017-07-18T13:27:27.112Z,10548
2017-07-18T13:28:28.722Z,10344
2017-07-18T13:29:30.348Z,11428
2017-07-18T13:30:31.985Z,11188
2017-07-18T13:31:33.610Z,12068
2017-07-18T13:32:35.242Z,7788
2017-07-18T13:33:36.872Z,9452
2017-07-18T13:34:38.717Z,14256
2017-07-18T13:35:40.343Z,12068
2017-07-18T13:36:41.973Z,10424
2017-07-18T13:37:44.782Z,11480
2017-07-18T13:38:48.389Z,7764
2017-07-18T13:39:50.268Z,13288
2017-07-18T13:40:51.882Z,13252
2017-07-18T13:41:53.523Z,13480
2017-07-18T13:42:55.169Z,13268
2017-07-18T13:43:56.772Z,12036
2017-07-18T13:44:58.617Z,12576
2017-07-18T13:46:02.228Z,9820
2017-07-18T13:47:03.843Z,13340
2017-07-18T13:48:05.467Z,8336
2017-07-18T13:49:07.099Z,13612
2017-07-18T13:50:08.728Z,13808